sensor_id;sensor_type;location;lat;lon;timestamp;temperature;humidity
41694;DHT22;27377;50.666;9.150;2023-04-15T00:00:48;3.30;99.90
41694;DHT22;27377;50.666;9.150;2023-04-15T00:03:15;3.20;99.90
41694;DHT22;27377;50.666;9.150;2023-04-15T00:05:41;3.20;99.90
41694;DHT22;27377;50.666;9.150;2023-04-15T00:08:07;3.20;99.90
41694;DHT22;27377;50.666;9.150;2023-04-15T00:10:33;3.20;99.90
41694;DHT22;27377;50.666;9.150;2023-04-15T00:12:59;3.20;99.90
41694;DHT22;27377;50.666;9.150;2023-04-15T00:15:26;3.10;99.90
41694;DHT22;27377;50.666;9.150;2023-04-15T00:17:52;3.10;99.90
41694;DHT22;27377;50.666;9.150;2023-04-15T00:20:21;3.10;99.90
41694;DHT22;27377;50.666;9.150;2023-04-15T00:22:49;3.10;99.90
41694;DHT22;27377;50.666;9.150;2023-04-15T00:25:15;3.10;99.90
41694;DHT22;27377;50.666;9.150;2023-04-15T00:27:41;3.10;99.90
41694;DHT22;27377;50.666;9.150;2023-04-15T00:30:07;3.00;99.90
41694;DHT22;27377;50.666;9.150;2023-04-15T00:32:36;2.90;99.90
41694;DHT22;27377;50.666;9.150;2023-04-15T00:35:01;2.80;99.90
41694;DHT22;27377;50.666;9.150;2023-04-15T00:37:28;2.90;99.90
41694;DHT22;27377;50.666;9.150;2023-04-15T00:39:54;2.90;99.90
41694;DHT22;27377;50.666;9.150;2023-04-15T00:42:20;2.90;99.90
41694;DHT22;27377;50.666;9.150;2023-04-15T00:44:46;3.00;99.90
41694;DHT22;27377;50.666;9.150;2023-04-15T00:47:12;2.90;99.90
41694;DHT22;27377;50.666;9.150;2023-04-15T00:49:38;2.90;99.90
41694;DHT22;27377;50.666;9.150;2023-04-15T00:52:04;2.90;99.90
41694;DHT22;27377;50.666;9.150;2023-04-15T00:54:29;2.90;99.90
41694;DHT22;27377;50.666;9.150;2023-04-15T00:56:57;3.00;99.90
41694;DHT22;27377;50.666;9.150;2023-04-15T00:59:24;3.00;99.90
41694;DHT22;27377;50.666;9.150;2023-04-15T01:01:50;3.00;99.90
41694;DHT22;27377;50.666;9.150;2023-04-15T01:04:19;2.90;99.90
41694;DHT22;27377;50.666;9.150;2023-04-15T01:06:44;2.90;99.90
41694;DHT22;27377;50.666;9.150;2023-04-15T01:09:10;2.90;99.90
41694;DHT22;27377;50.666;9.150;2023-04-15T01:11:36;2.90;99.90
41694;DHT22;27377;50.666;9.150;2023-04-15T01:14:02;2.80;99.90
41694;DHT22;27377;50.666;9.150;2023-04-15T01:16:27;2.80;99.90
41694;DHT22;27377;50.666;9.150;2023-04-15T01:18:53;2.80;99.90
41694;DHT22;27377;50.666;9.150;2023-04-15T01:21:19;2.70;99.90
41694;DHT22;27377;50.666;9.150;2023-04-15T01:23:46;2.70;99.90
41694;DHT22;27377;50.666;9.150;2023-04-15T01:26:12;2.60;99.90
41694;DHT22;27377;50.666;9.150;2023-04-15T01:28:38;2.50;99.90
41694;DHT22;27377;50.666;9.150;2023-04-15T01:31:10;2.50;99.90
41694;DHT22;27377;50.666;9.150;2023-04-15T01:33:37;2.60;99.90
41694;DHT22;27377;50.666;9.150;2023-04-15T01:36:03;2.60;99.90
41694;DHT22;27377;50.666;9.150;2023-04-15T01:38:30;2.70;99.90
41694;DHT22;27377;50.666;9.150;2023-04-15T01:40:56;2.70;99.90
41694;DHT22;27377;50.666;9.150;2023-04-15T01:43:22;2.80;99.90
41694;DHT22;27377;50.666;9.150;2023-04-15T01:45:48;2.80;99.90
41694;DHT22;27377;50.666;9.150;2023-04-15T01:48:13;2.70;99.90
41694;DHT22;27377;50.666;9.150;2023-04-15T01:50:39;2.60;99.90
41694;DHT22;27377;50.666;9.150;2023-04-15T01:53:04;2.60;99.90
41694;DHT22;27377;50.666;9.150;2023-04-15T01:55:30;2.70;99.90
41694;DHT22;27377;50.666;9.150;2023-04-15T01:57:56;2.80;99.90
41694;DHT22;27377;50.666;9.150;2023-04-15T02:00:21;2.80;99.90
41694;DHT22;27377;50.666;9.150;2023-04-15T02:02:47;2.90;99.90
41694;DHT22;27377;50.666;9.150;2023-04-15T02:05:13;2.90;99.90
41694;DHT22;27377;50.666;9.150;2023-04-15T02:07:41;2.90;99.90
41694;DHT22;27377;50.666;9.150;2023-04-15T02:10:07;2.80;99.90
41694;DHT22;27377;50.666;9.150;2023-04-15T02:12:33;2.70;99.90
41694;DHT22;27377;50.666;9.150;2023-04-15T02:14:59;2.80;99.90
41694;DHT22;27377;50.666;9.150;2023-04-15T02:17:24;2.80;99.90
41694;DHT22;27377;50.666;9.150;2023-04-15T02:19:50;2.80;99.90
41694;DHT22;27377;50.666;9.150;2023-04-15T02:22:15;2.70;99.90
41694;DHT22;27377;50.666;9.150;2023-04-15T02:24:43;2.70;99.90
41694;DHT22;27377;50.666;9.150;2023-04-15T02:27:08;2.60;99.90
41694;DHT22;27377;50.666;9.150;2023-04-15T02:29:34;2.60;99.90
41694;DHT22;27377;50.666;9.150;2023-04-15T02:32:00;2.50;99.90
41694;DHT22;27377;50.666;9.150;2023-04-15T02:34:25;2.60;99.90
41694;DHT22;27377;50.666;9.150;2023-04-15T02:36:51;2.60;99.90
41694;DHT22;27377;50.666;9.150;2023-04-15T02:39:21;2.60;99.90
41694;DHT22;27377;50.666;9.150;2023-04-15T02:41:47;2.50;99.90
41694;DHT22;27377;50.666;9.150;2023-04-15T02:44:16;2.60;99.90
41694;DHT22;27377;50.666;9.150;2023-04-15T02:46:46;2.60;99.90
41694;DHT22;27377;50.666;9.150;2023-04-15T02:49:15;2.70;99.90
41694;DHT22;27377;50.666;9.150;2023-04-15T02:51:40;2.70;99.90
41694;DHT22;27377;50.666;9.150;2023-04-15T02:54:06;2.80;99.90
41694;DHT22;27377;50.666;9.150;2023-04-15T02:56:33;2.80;99.90
41694;DHT22;27377;50.666;9.150;2023-04-15T02:58:58;2.80;99.90
41694;DHT22;27377;50.666;9.150;2023-04-15T03:01:24;2.90;99.90
41694;DHT22;27377;50.666;9.150;2023-04-15T03:03:50;2.80;99.90
41694;DHT22;27377;50.666;9.150;2023-04-15T03:06:16;2.90;99.90
41694;DHT22;27377;50.666;9.150;2023-04-15T03:08:41;2.90;99.90
41694;DHT22;27377;50.666;9.150;2023-04-15T03:11:07;3.00;99.90
41694;DHT22;27377;50.666;9.150;2023-04-15T03:13:33;3.00;99.90
41694;DHT22;27377;50.666;9.150;2023-04-15T03:15:58;2.90;99.90
41694;DHT22;27377;50.666;9.150;2023-04-15T03:18:24;2.80;99.90
41694;DHT22;27377;50.666;9.150;2023-04-15T03:20:49;2.80;99.90
41694;DHT22;27377;50.666;9.150;2023-04-15T03:23:15;2.80;99.90
41694;DHT22;27377;50.666;9.150;2023-04-15T03:25:41;2.90;99.90
41694;DHT22;27377;50.666;9.150;2023-04-15T03:28:07;2.90;99.90
41694;DHT22;27377;50.666;9.150;2023-04-15T03:30:32;2.90;99.90
41694;DHT22;27377;50.666;9.150;2023-04-15T03:32:58;2.90;99.90
41694;DHT22;27377;50.666;9.150;2023-04-15T03:35:23;2.90;99.90
41694;DHT22;27377;50.666;9.150;2023-04-15T03:37:49;2.90;99.90
41694;DHT22;27377;50.666;9.150;2023-04-15T03:40:15;2.90;99.90
41694;DHT22;27377;50.666;9.150;2023-04-15T03:42:41;2.90;99.90
41694;DHT22;27377;50.666;9.150;2023-04-15T03:45:07;2.80;99.90
41694;DHT22;27377;50.666;9.150;2023-04-15T03:47:32;2.90;99.90
41694;DHT22;27377;50.666;9.150;2023-04-15T03:49:58;2.90;99.90
41694;DHT22;27377;50.666;9.150;2023-04-15T03:52:24;2.90;99.90
41694;DHT22;27377;50.666;9.150;2023-04-15T03:54:49;2.90;99.90
41694;DHT22;27377;50.666;9.150;2023-04-15T03:57:15;2.80;99.90
41694;DHT22;27377;50.666;9.150;2023-04-15T03:59:41;2.80;99.90
41694;DHT22;27377;50.666;9.150;2023-04-15T04:02:06;2.80;99.90
41694;DHT22;27377;50.666;9.150;2023-04-15T04:04:32;2.70;99.90
41694;DHT22;27377;50.666;9.150;2023-04-15T04:06:57;2.70;99.90
41694;DHT22;27377;50.666;9.150;2023-04-15T04:09:23;2.80;99.90
41694;DHT22;27377;50.666;9.150;2023-04-15T04:11:49;2.80;99.90
41694;DHT22;27377;50.666;9.150;2023-04-15T04:14:14;2.80;99.90
41694;DHT22;27377;50.666;9.150;2023-04-15T04:16:40;2.70;99.90
41694;DHT22;27377;50.666;9.150;2023-04-15T04:19:06;2.70;99.90
41694;DHT22;27377;50.666;9.150;2023-04-15T04:21:32;2.70;99.90
41694;DHT22;27377;50.666;9.150;2023-04-15T04:23:58;2.70;99.90
41694;DHT22;27377;50.666;9.150;2023-04-15T04:26:24;2.70;99.90
41694;DHT22;27377;50.666;9.150;2023-04-15T04:28:50;2.70;99.90
41694;DHT22;27377;50.666;9.150;2023-04-15T04:31:16;2.70;99.90
41694;DHT22;27377;50.666;9.150;2023-04-15T04:33:42;2.70;99.90
41694;DHT22;27377;50.666;9.150;2023-04-15T04:36:07;2.80;99.90
41694;DHT22;27377;50.666;9.150;2023-04-15T04:38:33;2.80;99.90
41694;DHT22;27377;50.666;9.150;2023-04-15T04:40:59;2.90;99.90
41694;DHT22;27377;50.666;9.150;2023-04-15T04:43:24;2.90;99.90
41694;DHT22;27377;50.666;9.150;2023-04-15T04:45:51;2.90;99.90
41694;DHT22;27377;50.666;9.150;2023-04-15T04:48:17;2.90;99.90
41694;DHT22;27377;50.666;9.150;2023-04-15T04:50:43;2.80;99.90
41694;DHT22;27377;50.666;9.150;2023-04-15T04:53:09;2.80;99.90
41694;DHT22;27377;50.666;9.150;2023-04-15T04:55:36;2.80;99.90
41694;DHT22;27377;50.666;9.150;2023-04-15T04:58:02;2.80;99.90
41694;DHT22;27377;50.666;9.150;2023-04-15T05:00:27;2.80;99.90
41694;DHT22;27377;50.666;9.150;2023-04-15T05:02:54;2.80;99.90
41694;DHT22;27377;50.666;9.150;2023-04-15T05:05:19;2.70;99.90
41694;DHT22;27377;50.666;9.150;2023-04-15T05:07:45;2.70;99.90
41694;DHT22;27377;50.666;9.150;2023-04-15T05:10:11;2.70;99.90
41694;DHT22;27377;50.666;9.150;2023-04-15T05:12:39;2.80;99.90
41694;DHT22;27377;50.666;9.150;2023-04-15T05:15:05;2.80;99.90
41694;DHT22;27377;50.666;9.150;2023-04-15T05:17:31;2.80;99.90
41694;DHT22;27377;50.666;9.150;2023-04-15T05:19:59;2.80;99.90
41694;DHT22;27377;50.666;9.150;2023-04-15T05:22:25;2.80;99.90
41694;DHT22;27377;50.666;9.150;2023-04-15T05:24:50;2.90;99.90
41694;DHT22;27377;50.666;9.150;2023-04-15T05:27:16;2.80;99.90
41694;DHT22;27377;50.666;9.150;2023-04-15T05:29:43;2.80;99.90
41694;DHT22;27377;50.666;9.150;2023-04-15T05:32:09;2.90;99.90
41694;DHT22;27377;50.666;9.150;2023-04-15T05:34:35;2.90;99.90
41694;DHT22;27377;50.666;9.150;2023-04-15T05:37:01;3.00;99.90
41694;DHT22;27377;50.666;9.150;2023-04-15T05:39:27;3.00;99.90
41694;DHT22;27377;50.666;9.150;2023-04-15T05:41:53;3.10;99.90
41694;DHT22;27377;50.666;9.150;2023-04-15T05:44:18;3.10;99.90
41694;DHT22;27377;50.666;9.150;2023-04-15T05:46:44;3.20;99.90
41694;DHT22;27377;50.666;9.150;2023-04-15T05:49:09;3.20;99.90
41694;DHT22;27377;50.666;9.150;2023-04-15T05:51:35;3.20;99.90
41694;DHT22;27377;50.666;9.150;2023-04-15T05:54:01;3.30;99.90
41694;DHT22;27377;50.666;9.150;2023-04-15T05:56:26;3.20;99.90
41694;DHT22;27377;50.666;9.150;2023-04-15T05:58:52;3.30;99.90
41694;DHT22;27377;50.666;9.150;2023-04-15T06:01:17;3.20;99.90
41694;DHT22;27377;50.666;9.150;2023-04-15T06:03:43;3.30;99.90
41694;DHT22;27377;50.666;9.150;2023-04-15T06:06:09;3.20;99.90
41694;DHT22;27377;50.666;9.150;2023-04-15T06:08:34;3.30;99.90
41694;DHT22;27377;50.666;9.150;2023-04-15T06:11:00;3.20;99.90
41694;DHT22;27377;50.666;9.150;2023-04-15T06:13:25;3.30;99.90
41694;DHT22;27377;50.666;9.150;2023-04-15T06:15:51;3.30;99.90
41694;DHT22;27377;50.666;9.150;2023-04-15T06:18:18;3.30;99.90
41694;DHT22;27377;50.666;9.150;2023-04-15T06:20:44;3.30;99.90
41694;DHT22;27377;50.666;9.150;2023-04-15T06:23:10;3.30;99.90
41694;DHT22;27377;50.666;9.150;2023-04-15T06:25:35;3.40;99.90
41694;DHT22;27377;50.666;9.150;2023-04-15T06:28:01;3.40;99.90
41694;DHT22;27377;50.666;9.150;2023-04-15T06:30:26;3.50;99.90
41694;DHT22;27377;50.666;9.150;2023-04-15T06:32:52;3.50;99.90
41694;DHT22;27377;50.666;9.150;2023-04-15T06:35:19;3.50;99.90
41694;DHT22;27377;50.666;9.150;2023-04-15T06:37:44;3.60;99.90
41694;DHT22;27377;50.666;9.150;2023-04-15T06:40:10;3.70;99.90
41694;DHT22;27377;50.666;9.150;2023-04-15T06:42:36;3.70;99.90
41694;DHT22;27377;50.666;9.150;2023-04-15T06:45:02;3.80;99.90
41694;DHT22;27377;50.666;9.150;2023-04-15T06:47:28;3.80;99.90
41694;DHT22;27377;50.666;9.150;2023-04-15T06:49:54;3.90;99.90
41694;DHT22;27377;50.666;9.150;2023-04-15T06:52:19;4.00;99.90
41694;DHT22;27377;50.666;9.150;2023-04-15T06:54:45;4.00;99.90
41694;DHT22;27377;50.666;9.150;2023-04-15T06:57:10;4.00;99.90
41694;DHT22;27377;50.666;9.150;2023-04-15T06:59:36;4.10;99.90
41694;DHT22;27377;50.666;9.150;2023-04-15T07:02:01;4.10;99.90
41694;DHT22;27377;50.666;9.150;2023-04-15T07:04:27;4.20;99.90
41694;DHT22;27377;50.666;9.150;2023-04-15T07:06:53;4.20;99.90
41694;DHT22;27377;50.666;9.150;2023-04-15T07:09:20;4.30;99.90
41694;DHT22;27377;50.666;9.150;2023-04-15T07:11:46;4.30;99.90
41694;DHT22;27377;50.666;9.150;2023-04-15T07:14:12;4.40;99.90
41694;DHT22;27377;50.666;9.150;2023-04-15T07:16:37;4.40;99.90
41694;DHT22;27377;50.666;9.150;2023-04-15T07:19:03;4.50;99.90
41694;DHT22;27377;50.666;9.150;2023-04-15T07:21:28;4.50;99.90
41694;DHT22;27377;50.666;9.150;2023-04-15T07:23:54;4.60;99.90
41694;DHT22;27377;50.666;9.150;2023-04-15T07:26:19;4.70;99.90
41694;DHT22;27377;50.666;9.150;2023-04-15T07:28:45;4.70;99.90
41694;DHT22;27377;50.666;9.150;2023-04-15T07:31:11;4.80;99.90
41694;DHT22;27377;50.666;9.150;2023-04-15T07:33:37;4.90;99.90
41694;DHT22;27377;50.666;9.150;2023-04-15T07:36:02;5.00;99.90
41694;DHT22;27377;50.666;9.150;2023-04-15T07:38:28;5.00;99.90
41694;DHT22;27377;50.666;9.150;2023-04-15T07:40:54;5.10;99.90
41694;DHT22;27377;50.666;9.150;2023-04-15T07:43:20;5.20;99.90
41694;DHT22;27377;50.666;9.150;2023-04-15T07:45:46;5.30;99.90
41694;DHT22;27377;50.666;9.150;2023-04-15T07:48:11;5.40;99.90
41694;DHT22;27377;50.666;9.150;2023-04-15T07:50:37;5.50;99.90
41694;DHT22;27377;50.666;9.150;2023-04-15T07:53:03;5.50;99.90
41694;DHT22;27377;50.666;9.150;2023-04-15T07:55:28;5.60;99.90
41694;DHT22;27377;50.666;9.150;2023-04-15T07:57:55;5.70;99.90
41694;DHT22;27377;50.666;9.150;2023-04-15T08:00:21;5.70;99.90
41694;DHT22;27377;50.666;9.150;2023-04-15T08:02:46;5.80;99.90
41694;DHT22;27377;50.666;9.150;2023-04-15T08:05:13;5.80;99.90
41694;DHT22;27377;50.666;9.150;2023-04-15T08:07:39;5.90;99.90
41694;DHT22;27377;50.666;9.150;2023-04-15T08:10:05;5.90;99.90
41694;DHT22;27377;50.666;9.150;2023-04-15T08:12:31;6.00;99.90
41694;DHT22;27377;50.666;9.150;2023-04-15T08:14:57;6.00;99.90
41694;DHT22;27377;50.666;9.150;2023-04-15T08:17:23;6.00;99.90
41694;DHT22;27377;50.666;9.150;2023-04-15T08:19:49;6.10;99.90
41694;DHT22;27377;50.666;9.150;2023-04-15T08:22:14;6.10;99.90
41694;DHT22;27377;50.666;9.150;2023-04-15T08:24:40;6.20;99.90
41694;DHT22;27377;50.666;9.150;2023-04-15T08:27:06;6.30;99.90
41694;DHT22;27377;50.666;9.150;2023-04-15T08:29:32;6.30;99.90
41694;DHT22;27377;50.666;9.150;2023-04-15T08:32:01;6.30;99.90
41694;DHT22;27377;50.666;9.150;2023-04-15T08:34:27;6.30;99.90
41694;DHT22;27377;50.666;9.150;2023-04-15T08:36:53;6.40;99.90
41694;DHT22;27377;50.666;9.150;2023-04-15T08:39:19;6.40;99.90
41694;DHT22;27377;50.666;9.150;2023-04-15T08:41:58;6.40;99.90
41694;DHT22;27377;50.666;9.150;2023-04-15T08:44:25;6.50;99.90
41694;DHT22;27377;50.666;9.150;2023-04-15T08:46:55;6.50;99.90
41694;DHT22;27377;50.666;9.150;2023-04-15T08:49:24;6.40;99.90
41694;DHT22;27377;50.666;9.150;2023-04-15T08:51:51;6.50;99.90
41694;DHT22;27377;50.666;9.150;2023-04-15T08:54:17;6.50;99.90
41694;DHT22;27377;50.666;9.150;2023-04-15T08:56:43;6.50;99.90
41694;DHT22;27377;50.666;9.150;2023-04-15T08:59:09;6.60;99.90
41694;DHT22;27377;50.666;9.150;2023-04-15T09:01:36;6.60;99.90
41694;DHT22;27377;50.666;9.150;2023-04-15T09:04:02;6.70;99.90
41694;DHT22;27377;50.666;9.150;2023-04-15T09:06:30;6.70;99.90
41694;DHT22;27377;50.666;9.150;2023-04-15T09:08:56;6.70;99.90
41694;DHT22;27377;50.666;9.150;2023-04-15T09:11:21;6.70;99.90
41694;DHT22;27377;50.666;9.150;2023-04-15T09:13:48;6.70;99.90
41694;DHT22;27377;50.666;9.150;2023-04-15T09:16:13;6.70;99.90
41694;DHT22;27377;50.666;9.150;2023-04-15T09:18:39;6.70;99.90
41694;DHT22;27377;50.666;9.150;2023-04-15T09:21:06;6.70;99.90
41694;DHT22;27377;50.666;9.150;2023-04-15T09:23:34;6.70;99.90
41694;DHT22;27377;50.666;9.150;2023-04-15T09:26:01;6.80;99.90
41694;DHT22;27377;50.666;9.150;2023-04-15T09:28:27;6.80;99.90
41694;DHT22;27377;50.666;9.150;2023-04-15T09:30:57;6.70;99.90
41694;DHT22;27377;50.666;9.150;2023-04-15T09:33:23;6.70;99.90
41694;DHT22;27377;50.666;9.150;2023-04-15T09:36:01;6.70;99.90
41694;DHT22;27377;50.666;9.150;2023-04-15T09:38:28;6.70;99.90
41694;DHT22;27377;50.666;9.150;2023-04-15T09:40:54;6.70;99.90
41694;DHT22;27377;50.666;9.150;2023-04-15T09:43:19;6.70;99.90
41694;DHT22;27377;50.666;9.150;2023-04-15T09:45:50;6.70;99.90
41694;DHT22;27377;50.666;9.150;2023-04-15T09:48:23;6.70;99.90
41694;DHT22;27377;50.666;9.150;2023-04-15T09:50:51;6.70;99.90
41694;DHT22;27377;50.666;9.150;2023-04-15T09:53:22;6.70;99.90
41694;DHT22;27377;50.666;9.150;2023-04-15T09:55:55;6.80;99.90
41694;DHT22;27377;50.666;9.150;2023-04-15T09:58:26;6.70;99.90
41694;DHT22;27377;50.666;9.150;2023-04-15T10:00:54;6.70;99.90
41694;DHT22;27377;50.666;9.150;2023-04-15T10:03:26;6.70;99.90
41694;DHT22;27377;50.666;9.150;2023-04-15T10:05:54;6.80;99.90
41694;DHT22;27377;50.666;9.150;2023-04-15T10:08:22;6.80;99.90
41694;DHT22;27377;50.666;9.150;2023-04-15T10:10:50;6.80;99.90
41694;DHT22;27377;50.666;9.150;2023-04-15T10:13:22;6.80;99.90
41694;DHT22;27377;50.666;9.150;2023-04-15T10:15:54;6.80;99.90
41694;DHT22;27377;50.666;9.150;2023-04-15T10:18:24;6.90;99.90
41694;DHT22;27377;50.666;9.150;2023-04-15T10:20:50;6.90;99.90
41694;DHT22;27377;50.666;9.150;2023-04-15T10:23:17;6.90;99.90
41694;DHT22;27377;50.666;9.150;2023-04-15T10:25:44;6.90;99.90
41694;DHT22;27377;50.666;9.150;2023-04-15T10:28:11;6.90;99.90
41694;DHT22;27377;50.666;9.150;2023-04-15T10:30:37;6.90;99.90
41694;DHT22;27377;50.666;9.150;2023-04-15T10:33:04;6.90;99.90
41694;DHT22;27377;50.666;9.150;2023-04-15T10:35:30;6.90;99.90
41694;DHT22;27377;50.666;9.150;2023-04-15T10:37:57;6.90;99.90
41694;DHT22;27377;50.666;9.150;2023-04-15T10:43:02;6.90;99.90
41694;DHT22;27377;50.666;9.150;2023-04-15T10:45:33;6.90;99.90
41694;DHT22;27377;50.666;9.150;2023-04-15T10:48:01;6.90;99.90
41694;DHT22;27377;50.666;9.150;2023-04-15T10:50:29;6.90;99.90
41694;DHT22;27377;50.666;9.150;2023-04-15T10:52:55;6.90;99.90
41694;DHT22;27377;50.666;9.150;2023-04-15T10:55:23;6.90;99.90
41694;DHT22;27377;50.666;9.150;2023-04-15T10:57:54;6.90;99.90
41694;DHT22;27377;50.666;9.150;2023-04-15T11:00:27;6.90;99.90
41694;DHT22;27377;50.666;9.150;2023-04-15T11:03:12;6.90;99.90
41694;DHT22;27377;50.666;9.150;2023-04-15T11:08:07;7.00;99.90
41694;DHT22;27377;50.666;9.150;2023-04-15T11:13:01;7.00;99.90
41694;DHT22;27377;50.666;9.150;2023-04-15T11:15:32;7.00;99.90
41694;DHT22;27377;50.666;9.150;2023-04-15T11:18:07;7.00;99.90
41694;DHT22;27377;50.666;9.150;2023-04-15T11:20:33;7.00;99.90
41694;DHT22;27377;50.666;9.150;2023-04-15T11:22:59;7.00;99.90
41694;DHT22;27377;50.666;9.150;2023-04-15T11:25:26;7.00;99.90
41694;DHT22;27377;50.666;9.150;2023-04-15T11:27:52;7.00;99.90
41694;DHT22;27377;50.666;9.150;2023-04-15T11:30:20;7.00;99.90
41694;DHT22;27377;50.666;9.150;2023-04-15T11:32:47;7.00;99.90
41694;DHT22;27377;50.666;9.150;2023-04-15T11:35:13;7.00;99.90
41694;DHT22;27377;50.666;9.150;2023-04-15T11:37:38;7.00;99.90
41694;DHT22;27377;50.666;9.150;2023-04-15T11:40:05;7.00;99.90
41694;DHT22;27377;50.666;9.150;2023-04-15T11:42:31;7.00;99.90
41694;DHT22;27377;50.666;9.150;2023-04-15T11:45:12;7.00;99.90
41694;DHT22;27377;50.666;9.150;2023-04-15T11:47:39;7.00;99.90
41694;DHT22;27377;50.666;9.150;2023-04-15T11:50:19;7.00;99.90
41694;DHT22;27377;50.666;9.150;2023-04-15T11:52:58;7.10;99.90
41694;DHT22;27377;50.666;9.150;2023-04-15T11:55:25;7.10;99.90
41694;DHT22;27377;50.666;9.150;2023-04-15T11:58:07;7.10;99.90
41694;DHT22;27377;50.666;9.150;2023-04-15T12:00:32;7.00;99.90
41694;DHT22;27377;50.666;9.150;2023-04-15T12:03:12;7.00;99.90
41694;DHT22;27377;50.666;9.150;2023-04-15T12:06:03;7.00;99.90
41694;DHT22;27377;50.666;9.150;2023-04-15T12:11:37;7.10;99.90
41694;DHT22;27377;50.666;9.150;2023-04-15T12:14:07;7.00;99.90
41694;DHT22;27377;50.666;9.150;2023-04-15T12:16:34;7.10;99.90
41694;DHT22;27377;50.666;9.150;2023-04-15T12:19:05;7.10;99.90
41694;DHT22;27377;50.666;9.150;2023-04-15T12:21:36;7.10;99.90
41694;DHT22;27377;50.666;9.150;2023-04-15T12:24:03;7.10;99.90
41694;DHT22;27377;50.666;9.150;2023-04-15T12:26:40;7.10;99.90
41694;DHT22;27377;50.666;9.150;2023-04-15T12:29:07;7.10;99.90
41694;DHT22;27377;50.666;9.150;2023-04-15T12:31:34;7.10;99.90
41694;DHT22;27377;50.666;9.150;2023-04-15T12:34:01;7.00;99.90
41694;DHT22;27377;50.666;9.150;2023-04-15T12:36:28;7.10;99.90
41694;DHT22;27377;50.666;9.150;2023-04-15T12:38:56;7.10;99.90
41694;DHT22;27377;50.666;9.150;2023-04-15T12:41:21;7.10;99.90
41694;DHT22;27377;50.666;9.150;2023-04-15T12:43:49;7.10;99.90
41694;DHT22;27377;50.666;9.150;2023-04-15T12:46:14;7.10;99.90
41694;DHT22;27377;50.666;9.150;2023-04-15T12:48:40;7.20;99.90
41694;DHT22;27377;50.666;9.150;2023-04-15T12:51:06;7.20;99.90
41694;DHT22;27377;50.666;9.150;2023-04-15T12:53:31;7.10;99.90
41694;DHT22;27377;50.666;9.150;2023-04-15T12:55:57;7.10;99.90
41694;DHT22;27377;50.666;9.150;2023-04-15T12:58:22;7.10;99.90
41694;DHT22;27377;50.666;9.150;2023-04-15T13:00:48;7.10;99.90
41694;DHT22;27377;50.666;9.150;2023-04-15T13:03:14;7.10;99.90
41694;DHT22;27377;50.666;9.150;2023-04-15T13:05:40;7.10;99.90
41694;DHT22;27377;50.666;9.150;2023-04-15T13:08:06;7.10;99.90
41694;DHT22;27377;50.666;9.150;2023-04-15T13:10:32;7.10;99.90
41694;DHT22;27377;50.666;9.150;2023-04-15T13:12:58;7.10;99.90
41694;DHT22;27377;50.666;9.150;2023-04-15T13:15:23;7.10;99.90
41694;DHT22;27377;50.666;9.150;2023-04-15T13:17:50;7.10;99.90
41694;DHT22;27377;50.666;9.150;2023-04-15T13:20:16;7.10;99.90
41694;DHT22;27377;50.666;9.150;2023-04-15T13:22:41;7.10;99.90
41694;DHT22;27377;50.666;9.150;2023-04-15T13:25:07;7.10;99.90
41694;DHT22;27377;50.666;9.150;2023-04-15T13:27:33;7.10;99.90
41694;DHT22;27377;50.666;9.150;2023-04-15T13:29:59;7.10;99.90
41694;DHT22;27377;50.666;9.150;2023-04-15T13:32:24;7.10;99.90
41694;DHT22;27377;50.666;9.150;2023-04-15T13:34:50;7.10;99.90
41694;DHT22;27377;50.666;9.150;2023-04-15T13:37:16;7.10;99.90
41694;DHT22;27377;50.666;9.150;2023-04-15T13:39:41;7.10;99.90
41694;DHT22;27377;50.666;9.150;2023-04-15T13:42:07;7.20;99.90
41694;DHT22;27377;50.666;9.150;2023-04-15T13:44:32;7.20;99.90
41694;DHT22;27377;50.666;9.150;2023-04-15T13:46:58;7.10;99.90
41694;DHT22;27377;50.666;9.150;2023-04-15T13:49:23;7.20;99.90
41694;DHT22;27377;50.666;9.150;2023-04-15T13:51:50;7.10;99.90
41694;DHT22;27377;50.666;9.150;2023-04-15T13:54:15;7.10;99.90
41694;DHT22;27377;50.666;9.150;2023-04-15T13:56:41;7.20;99.90
41694;DHT22;27377;50.666;9.150;2023-04-15T13:59:06;7.10;99.90
41694;DHT22;27377;50.666;9.150;2023-04-15T14:01:33;7.10;99.90
41694;DHT22;27377;50.666;9.150;2023-04-15T14:03:59;7.20;99.90
41694;DHT22;27377;50.666;9.150;2023-04-15T14:06:25;7.20;99.90
41694;DHT22;27377;50.666;9.150;2023-04-15T14:08:51;7.10;99.90
41694;DHT22;27377;50.666;9.150;2023-04-15T14:11:17;7.20;99.90
41694;DHT22;27377;50.666;9.150;2023-04-15T14:13:43;7.20;99.90
41694;DHT22;27377;50.666;9.150;2023-04-15T14:16:08;7.20;99.90
41694;DHT22;27377;50.666;9.150;2023-04-15T14:18:34;7.20;99.90
41694;DHT22;27377;50.666;9.150;2023-04-15T14:20:59;7.20;99.90
41694;DHT22;27377;50.666;9.150;2023-04-15T14:23:25;7.20;99.90
41694;DHT22;27377;50.666;9.150;2023-04-15T14:25:50;7.20;99.90
41694;DHT22;27377;50.666;9.150;2023-04-15T14:28:17;7.20;99.90
41694;DHT22;27377;50.666;9.150;2023-04-15T14:30:42;7.20;99.90
41694;DHT22;27377;50.666;9.150;2023-04-15T14:33:08;7.10;99.90
41694;DHT22;27377;50.666;9.150;2023-04-15T14:35:34;7.20;99.90
41694;DHT22;27377;50.666;9.150;2023-04-15T14:37:59;7.20;99.90
41694;DHT22;27377;50.666;9.150;2023-04-15T14:40:25;7.20;99.90
41694;DHT22;27377;50.666;9.150;2023-04-15T14:42:50;7.20;99.90
41694;DHT22;27377;50.666;9.150;2023-04-15T14:45:16;7.20;99.90
41694;DHT22;27377;50.666;9.150;2023-04-15T14:47:42;7.30;99.90
41694;DHT22;27377;50.666;9.150;2023-04-15T14:50:08;7.20;99.90
41694;DHT22;27377;50.666;9.150;2023-04-15T14:52:34;7.20;99.90
41694;DHT22;27377;50.666;9.150;2023-04-15T14:55:10;7.20;99.90
41694;DHT22;27377;50.666;9.150;2023-04-15T14:57:37;7.20;99.90
41694;DHT22;27377;50.666;9.150;2023-04-15T15:00:03;7.20;99.90
41694;DHT22;27377;50.666;9.150;2023-04-15T15:02:29;7.20;99.90
41694;DHT22;27377;50.666;9.150;2023-04-15T15:04:56;7.20;99.90
41694;DHT22;27377;50.666;9.150;2023-04-15T15:07:22;7.20;99.90
41694;DHT22;27377;50.666;9.150;2023-04-15T15:09:48;7.20;99.90
41694;DHT22;27377;50.666;9.150;2023-04-15T15:12:13;7.20;99.90
41694;DHT22;27377;50.666;9.150;2023-04-15T15:14:39;7.20;99.90
41694;DHT22;27377;50.666;9.150;2023-04-15T15:17:04;7.30;99.90
41694;DHT22;27377;50.666;9.150;2023-04-15T15:19:30;7.30;99.90
41694;DHT22;27377;50.666;9.150;2023-04-15T15:21:55;7.30;99.90
41694;DHT22;27377;50.666;9.150;2023-04-15T15:24:21;7.30;99.90
41694;DHT22;27377;50.666;9.150;2023-04-15T15:26:47;7.30;99.90
41694;DHT22;27377;50.666;9.150;2023-04-15T15:29:12;7.30;99.90
41694;DHT22;27377;50.666;9.150;2023-04-15T15:31:38;7.30;99.90
41694;DHT22;27377;50.666;9.150;2023-04-15T15:34:03;7.30;99.90
41694;DHT22;27377;50.666;9.150;2023-04-15T15:36:29;7.30;99.90
41694;DHT22;27377;50.666;9.150;2023-04-15T15:38:58;7.30;99.90
41694;DHT22;27377;50.666;9.150;2023-04-15T15:41:24;7.30;99.90
41694;DHT22;27377;50.666;9.150;2023-04-15T15:43:50;7.30;99.90
41694;DHT22;27377;50.666;9.150;2023-04-15T15:46:16;7.30;99.90
41694;DHT22;27377;50.666;9.150;2023-04-15T15:48:42;7.30;99.90
41694;DHT22;27377;50.666;9.150;2023-04-15T15:51:08;7.30;99.90